Nellis AFB, Nevada
Current Conditions -  °F | °C
As of 11:58 AM on Sunday 23 Nov 2014 (Local Time) from KLSV Reporting Station
Clear Clear  
Wind Chill: 61°   Ceiling: Unl
Heat Index: 61°   Visibility: 10mi
Dew Point: 10°   Wind: 13mph
Humidity: 13%   Direction: 350°N
Pressure: 30.26"   Gusts: 23mph
Location:  36.24°N, 115.03°W
Report Text: KLSV 231958Z AUTO 35011G20KT 10SM CLR 16/M12 A3026 RMK AO2 SLP239 T01631121
Loading
Personal Weather Stations






























Interactive Weather Map New forecast layout! Learn more

10-Day Weather Forecast

Advertisements
Track Severe Weather on mobile